Buoy 41936

sailwx.info

Track history (hours):
 
Tides and Currents Weather Stations Pressure Air Temp Water Temp Dewpoint Dewpoint Depression Visibility Wind Speed Wind Dir Waves Ship Positions

Drifting buoy 41936

Last reported at 2015-Aug-02 06:00 UTC. Time now 2015-Aug-02 10:21 UTC.
Position N 33°17' W 051°12'.

Barometer 1020.5 mb

Date/timePositionNaut miles runAvg speedWind from/ knotsBaromVisibWave heightAir tempDewpointWater temp
2015-Aug-02 06:00N 33°17' W 051°12'1 1.0 1020.5
2015-Aug-02 05:00N 33°17' W 051°13'2 0.4 1020.7
2015-Aug-02 01:00N 33°17' W 051°11'1 0.3 1021.2
2015-Aug-01 23:00N 33°16' W 051°11'1 0.5 1020.5
2015-Aug-01 21:00N 33°17' W 051°10'3 0.8 1020.3
2015-Aug-01 17:00N 33°20' W 051°07'0 0.0 1021.0
2015-Aug-01 16:00N 33°20' W 051°07'2 0.8 1021.2
2015-Aug-01 13:00N 33°22' W 051°08'1 0.3 1021.1
2015-Aug-01 09:00N 33°21' W 051°10'3 0.3 1020.6
2015-Aug-01 01:00N 33°19' W 051°08'3 0.5 1021.8
2015-Jul-31 19:00N 33°20' W 051°04'2 1.0 1020.6
2015-Jul-31 17:00N 33°22' W 051°04'0 0.0 1021.0
2015-Jul-31 16:00N 33°22' W 051°04'2 0.6 1021.3
2015-Jul-31 12:00N 33°24' W 051°05'1 1.0 1021.4
2015-Jul-31 11:00N 33°24' W 051°06'0 0.2 1021.5
2015-Jul-31 09:00N 33°24' W 051°07'0 0.4 1020.5
2015-Jul-31 08:00N 33°24' W 051°07'4 0.3 1020.3
2015-Jul-30 18:00N 33°26' W 051°03'1 1.2 1021.0
2015-Jul-30 17:00N 33°27' W 051°03'2 0.5 1021.3
2015-Jul-30 14:00N 33°28' W 051°05'2 0.9 1021.8
2015-Jul-30 12:00N 33°28' W 051°07'0 0.0 1021.2
2015-Jul-30 10:00N 33°28' W 051°07'1 0.7 1020.4
2015-Jul-30 09:00N 33°28' W 051°08'2 0.4 1020.2
2015-Jul-30 05:00N 33°26' W 051°07'2 0.5 1020.2
2015-Jul-30 00:00N 33°27' W 051°05'2 1.7 1020.8
2015-Jul-29 23:00N 33°29' W 051°04'1 0.3 1020.2
2015-Jul-29 20:00N 33°30' W 051°04'1 1.4 1019.4
2015-Jul-29 19:00N 33°31' W 051°05'0 0.0 1019.1
2015-Jul-29 05:00N 33°31' W 051°05'0 0.0 1019.7
2015-Jul-29 02:00N 33°31' W 051°05'1 0.9 1020.6
2015-Jul-29 01:00N 33°32' W 051°04'7 0.6 1020.4
2015-Jul-28 12:00N 33°38' W 051°09'0 0.0 1019.7
2015-Jul-28 11:00N 33°38' W 051°09'1 0.5 1019.5
2015-Jul-28 09:00N 33°37' W 051°08'0 0.0 1018.9
2015-Jul-28 08:00N 33°37' W 051°08'2 1.6 1018.4
2015-Jul-28 07:00N 33°38' W 051°06'6 0.8 1017.9
2015-Jul-28 00:00N 33°43' W 051°03'2 2.4 1018.2
2015-Jul-27 23:00N 33°45' W 051°05'1 0.5 1017.5
2015-Jul-27 21:00N 33°46' W 051°06'4 1.1 1016.2
2015-Jul-27 17:00N 33°48' W 051°10'5 0.5 1014.2
2015-Jul-27 08:00N 33°48' W 051°16'2 0.2 1015.8
2015-Jul-27 00:00N 33°48' W 051°18'1 0.7 1017.3
2015-Jul-26 23:00N 33°49' W 051°19'1 1.4 1017.0
2015-Jul-26 22:00N 33°49' W 051°20'0 0.1 1016.9
2015-Jul-26 21:00N 33°49' W 051°20'2 1.5 1016.5
2015-Jul-26 20:00N 33°50' W 051°22'2 2.2 1016.5
2015-Jul-26 19:00N 33°51' W 051°24'0 0.0 1017.0
2015-Jul-26 17:00N 33°51' W 051°25'0 0.0 1017.7
2015-Jul-26 16:00N 33°51' W 051°25'3 0.8 1017.7
2015-Jul-26 13:00N 33°50' W 051°28'2 1.7 1017.8
2015-Jul-26 12:00N 33°49' W 051°29'0 0.0 1017.6
2015-Jul-26 11:00N 33°49' W 051°29'1 0.5 1017.4
2015-Jul-26 10:00N 33°50' W 051°29'1 0.8 1017.1
2015-Jul-26 09:00N 33°49' W 051°30'1 0.8 1016.8
2015-Jul-26 08:00N 33°50' W 051°31'1 1.2 1016.6
2015-Jul-26 07:00N 33°49' W 051°32'2 1.1 1016.5
2015-Jul-26 05:00N 33°48' W 051°34'0 0.0 1017.0
2015-Jul-26 01:00N 33°48' W 051°34'7 0.6 1018.2
2015-Jul-25 14:00N 33°46' W 051°42'2 0.6 1018.9
2015-Jul-25 10:00N 33°45' W 051°44'0 0.0 1018.1
2015-Jul-25 09:00N 33°45' W 051°44'1 1.3 1018.1
2015-Jul-25 08:00N 33°45' W 051°46'1 1.5 1017.7
2015-Jul-25 07:00N 33°44' W 051°47'0 0.1 1017.5
2015-Jul-25 06:00N 33°44' W 051°47'5 0.8 1017.6
2015-Jul-25 00:00N 33°39' W 051°50'0 0.1 1019.4
2015-Jul-24 23:00N 33°39' W 051°50'1 0.4 1018.6
2015-Jul-24 20:00N 33°39' W 051°51'1 0.3 1018.8
2015-Jul-24 15:00N 33°38' W 051°52'10 0.5 1019.4
2015-Jul-23 19:00N 33°28' W 051°56'1 0.2 1019.3
2015-Jul-23 16:00N 33°28' W 051°56'1 0.3 1020.0
2015-Jul-23 13:00N 33°27' W 051°56'2 1.8 1020.2
2015-Jul-23 12:00N 33°26' W 051°58'0 0.0 1020.3
2015-Jul-23 11:00N 33°26' W 051°58'1 0.5 1020.1
2015-Jul-23 08:00N 33°24' W 051°58'   1019.0
Track history (hours):
 
Tides and Currents Weather Stations Pressure Air Temp Water Temp Dewpoint Dewpoint Depression Visibility Wind Speed Wind Dir Waves Ship Positions

Drifting buoy 41936

Last reported at 2015-Aug-02 06:00 UTC. Time now 2015-Aug-02 10:21 UTC.
Position N 33°17' W 051°12'.

Barometer 1020.5 mb

Date/timePositionNaut miles runAvg speedWind from/ knotsBaromVisibWave heightAir tempDewpointWater temp
2015-Aug-02 06:00N 33°17' W 051°12'1 1.0 1020.5
2015-Aug-02 05:00N 33°17' W 051°13'2 0.4 1020.7
2015-Aug-02 01:00N 33°17' W 051°11'1 0.3 1021.2
2015-Aug-01 23:00N 33°16' W 051°11'1 0.5 1020.5
2015-Aug-01 21:00N 33°17' W 051°10'3 0.8 1020.3
2015-Aug-01 17:00N 33°20' W 051°07'0 0.0 1021.0
2015-Aug-01 16:00N 33°20' W 051°07'2 0.8 1021.2
2015-Aug-01 13:00N 33°22' W 051°08'1 0.3 1021.1
2015-Aug-01 09:00N 33°21' W 051°10'3 0.3 1020.6
2015-Aug-01 01:00N 33°19' W 051°08'3 0.5 1021.8
2015-Jul-31 19:00N 33°20' W 051°04'2 1.0 1020.6
2015-Jul-31 17:00N 33°22' W 051°04'0 0.0 1021.0
2015-Jul-31 16:00N 33°22' W 051°04'2 0.6 1021.3
2015-Jul-31 12:00N 33°24' W 051°05'1 1.0 1021.4
2015-Jul-31 11:00N 33°24' W 051°06'0 0.2 1021.5
2015-Jul-31 09:00N 33°24' W 051°07'0 0.4 1020.5
2015-Jul-31 08:00N 33°24' W 051°07'4 0.3 1020.3
2015-Jul-30 18:00N 33°26' W 051°03'1 1.2 1021.0
2015-Jul-30 17:00N 33°27' W 051°03'2 0.5 1021.3
2015-Jul-30 14:00N 33°28' W 051°05'2 0.9 1021.8
2015-Jul-30 12:00N 33°28' W 051°07'0 0.0 1021.2
2015-Jul-30 10:00N 33°28' W 051°07'1 0.7 1020.4
2015-Jul-30 09:00N 33°28' W 051°08'2 0.4 1020.2
2015-Jul-30 05:00N 33°26' W 051°07'2 0.5 1020.2
2015-Jul-30 00:00N 33°27' W 051°05'2 1.7 1020.8
2015-Jul-29 23:00N 33°29' W 051°04'1 0.3 1020.2
2015-Jul-29 20:00N 33°30' W 051°04'1 1.4 1019.4
2015-Jul-29 19:00N 33°31' W 051°05'0 0.0 1019.1
2015-Jul-29 05:00N 33°31' W 051°05'0 0.0 1019.7
2015-Jul-29 02:00N 33°31' W 051°05'1 0.9 1020.6
2015-Jul-29 01:00N 33°32' W 051°04'7 0.6 1020.4
2015-Jul-28 12:00N 33°38' W 051°09'0 0.0 1019.7
2015-Jul-28 11:00N 33°38' W 051°09'1 0.5 1019.5
2015-Jul-28 09:00N 33°37' W 051°08'0 0.0 1018.9
2015-Jul-28 08:00N 33°37' W 051°08'2 1.6 1018.4
2015-Jul-28 07:00N 33°38' W 051°06'6 0.8 1017.9
2015-Jul-28 00:00N 33°43' W 051°03'2 2.4 1018.2
2015-Jul-27 23:00N 33°45' W 051°05'1 0.5 1017.5
2015-Jul-27 21:00N 33°46' W 051°06'4 1.1 1016.2
2015-Jul-27 17:00N 33°48' W 051°10'5 0.5 1014.2
2015-Jul-27 08:00N 33°48' W 051°16'2 0.2 1015.8
2015-Jul-27 00:00N 33°48' W 051°18'1 0.7 1017.3
2015-Jul-26 23:00N 33°49' W 051°19'1 1.4 1017.0
2015-Jul-26 22:00N 33°49' W 051°20'0 0.1 1016.9
2015-Jul-26 21:00N 33°49' W 051°20'2 1.5 1016.5
2015-Jul-26 20:00N 33°50' W 051°22'2 2.2 1016.5
2015-Jul-26 19:00N 33°51' W 051°24'0 0.0 1017.0
2015-Jul-26 17:00N 33°51' W 051°25'0 0.0 1017.7
2015-Jul-26 16:00N 33°51' W 051°25'3 0.8 1017.7
2015-Jul-26 13:00N 33°50' W 051°28'2 1.7 1017.8
2015-Jul-26 12:00N 33°49' W 051°29'0 0.0 1017.6
2015-Jul-26 11:00N 33°49' W 051°29'1 0.5 1017.4
2015-Jul-26 10:00N 33°50' W 051°29'1 0.8 1017.1
2015-Jul-26 09:00N 33°49' W 051°30'1 0.8 1016.8
2015-Jul-26 08:00N 33°50' W 051°31'1 1.2 1016.6
2015-Jul-26 07:00N 33°49' W 051°32'2 1.1 1016.5
2015-Jul-26 05:00N 33°48' W 051°34'0 0.0 1017.0
2015-Jul-26 01:00N 33°48' W 051°34'7 0.6 1018.2
2015-Jul-25 14:00N 33°46' W 051°42'2 0.6 1018.9
2015-Jul-25 10:00N 33°45' W 051°44'0 0.0 1018.1
2015-Jul-25 09:00N 33°45' W 051°44'1 1.3 1018.1
2015-Jul-25 08:00N 33°45' W 051°46'1 1.5 1017.7
2015-Jul-25 07:00N 33°44' W 051°47'0 0.1 1017.5
2015-Jul-25 06:00N 33°44' W 051°47'5 0.8 1017.6
2015-Jul-25 00:00N 33°39' W 051°50'0 0.1 1019.4
2015-Jul-24 23:00N 33°39' W 051°50'1 0.4 1018.6
2015-Jul-24 20:00N 33°39' W 051°51'1 0.3 1018.8
2015-Jul-24 15:00N 33°38' W 051°52'10 0.5 1019.4
2015-Jul-23 19:00N 33°28' W 051°56'1 0.2 1019.3
2015-Jul-23 16:00N 33°28' W 051°56'1 0.3 1020.0
2015-Jul-23 13:00N 33°27' W 051°56'2 1.8 1020.2
2015-Jul-23 12:00N 33°26' W 051°58'0 0.0 1020.3
2015-Jul-23 11:00N 33°26' W 051°58'1 0.5 1020.1
2015-Jul-23 08:00N 33°24' W 051°58'   1019.0

Dump ship's entire track history